Terminal Aerodrome Forecast
Issued by NWS

Home | Current Version | Previous Version | Graphics & Text | Print | Product List | Glossary On
Versions: 1 2 3 4 5 6 7 8 9 10 11 12 13 14 15 16 17 18 19
060
FTUS43 KOAX 161507 AAA
TAFCDR
TAF AMD
KCDR 161507Z 1615/1712 08006KT P6SM BKN007 OVC015
     FM161700 32008KT P6SM SCT007 BKN050
     FM162300 VRB04KT P6SM SCT050=

USA.gov is the U.S. government's official web portal to all federal, state and local government web resources and services.